Bom Jesus, Brazil
Current Conditions -  °F | °C
As of 9:00 AM on Friday 31 Oct 2014 (Local Time) from SBUL Reporting Station
Clear Clear  
Wind Chill: 73°   Ceiling: Unl
Heat Index: 73°   Visibility: 6mi
Dew Point: 61°   Wind: 10mph
Humidity: 65%   Direction: 70°ENE
Pressure: 30.09"   Gusts: NA
Location:  18.21°S, 49.74°W
Report Text: SBUL 311100Z 07009KT CAVOK 23/16 Q1019
Loading
Personal Weather Stations






























Interactive Weather Map
Tropical Storm Tracking
New forecast layout! Learn more

10-Day Weather Forecast

Advertisements
Track Severe Weather on mobile